Time;durP1;ratioP1;P1;durP2;ratioP2;P2;SDS_P1;SDS_P2;PMS_P1;PMS_P2;Temp;Humidity;BMP_temperature;BMP_pressure;BME280_temperature;BME280_humidity;BME280_pressure;Samples;Min_cycle;Max_cycle;Signal;HPM_P1;HPM_P2
2021/08/04 00:00:08;;;;;;;1.10;1.00;;;14.90;86.00;;;;;;5057029;28;20021;-84
2021/08/04 00:02:33;;;;;;;0.80;0.77;;;14.90;86.00;;;;;;5074965;28;20025;-84
2021/08/04 00:04:59;;;;;;;1.00;0.82;;;14.90;86.10;;;;;;5075091;28;20051;-82
2021/08/04 00:07:25;;;;;;;0.93;0.70;;;14.90;86.10;;;;;;5074849;28;20085;-81
2021/08/04 00:09:51;;;;;;;0.90;0.52;;;14.80;86.10;;;;;;5074272;28;20029;-82
2021/08/04 00:12:16;;;;;;;0.70;0.70;;;14.80;86.10;;;;;;5074570;28;20040;-82
2021/08/04 00:14:42;;;;;;;0.88;0.75;;;14.80;86.20;;;;;;5074872;28;20021;-84
2021/08/04 00:17:07;;;;;;;0.60;0.50;;;14.80;86.20;;;;;;5074408;28;20363;-83
2021/08/04 00:19:33;;;;;;;0.68;0.47;;;14.80;86.20;;;;;;5074628;28;20538;-82
2021/08/04 00:21:58;;;;;;;1.15;0.60;;;14.70;86.90;;;;;;5074350;28;20024;-82
2021/08/04 00:24:24;;;;;;;0.52;0.52;;;14.70;86.20;;;;;;5074133;28;20069;-80
2021/08/04 00:26:50;;;;;;;0.60;0.60;;;14.70;86.30;;;;;;5074841;28;20028;-81
2021/08/04 00:29:15;;;;;;;0.60;0.50;;;14.70;86.30;;;;;;5074422;28;20104;-80
2021/08/04 00:31:41;;;;;;;0.45;0.43;;;14.70;86.30;;;;;;5074243;28;20385;-81
2021/08/04 00:34:06;;;;;;;0.88;0.80;;;14.70;86.30;;;;;;5074299;28;20032;-81
2021/08/04 00:36:32;;;;;;;0.98;0.40;;;14.60;86.30;;;;;;5074312;28;20048;-81
2021/08/04 00:38:58;;;;;;;1.02;0.82;;;14.70;86.40;;;;;;5055752;28;20556;-81
2021/08/04 00:41:24;;;;;;;0.80;0.75;;;14.60;86.30;;;;;;5074063;28;20028;-81
2021/08/04 00:43:49;;;;;;;1.30;0.70;;;14.60;86.30;;;;;;5074118;28;20051;-81
2021/08/04 00:46:15;;;;;;;1.10;1.00;;;14.60;86.40;;;;;;5056093;28;20028;-82
2021/08/04 00:48:42;;;;;;;0.40;0.40;;;14.60;86.40;;;;;;5074205;28;20029;-81
2021/08/04 00:51:08;;;;;;;0.57;0.57;;;14.60;86.50;;;;;;5073951;28;20385;-82
2021/08/04 00:53:34;;;;;;;0.60;0.60;;;14.60;86.50;;;;;;5055364;28;20036;-82
2021/08/04 00:56:00;;;;;;;0.55;0.52;;;14.60;86.60;;;;;;5056033;28;20032;-81
2021/08/04 00:58:31;;;;;;;0.73;0.73;;;14.60;86.60;;;;;;5073876;28;20028;-82
2021/08/04 01:01:09;;;;;;;0.50;0.50;;;14.50;86.60;;;;;;5073939;28;20047;-82
2021/08/04 01:03:43;;;;;;;0.82;0.73;;;14.50;86.60;;;;;;5073754;28;20029;-83
2021/08/04 01:06:47;;;;;;;0.90;0.82;;;14.50;86.60;;;;;;5055798;28;20033;-82
2021/08/04 01:09:14;;;;;;;0.65;0.65;;;14.60;86.60;;;;;;5050413;28;20033;-82
2021/08/04 01:11:54;;;;;;;0.90;0.70;;;14.50;86.70;;;;;;5055991;28;20037;-80
2021/08/04 01:14:22;;;;;;;;;;;14.50;86.70;;;;;;5074316;28;20035;-81
2021/08/04 01:16:50;;;;;;;0.68;0.65;;;14.40;86.60;;;;;;5055582;28;19904;-81
2021/08/04 01:19:33;;;;;;;0.88;0.68;;;14.40;86.80;;;;;;5073659;28;20016;-81
2021/08/04 01:22:17;;;;;;;0.70;0.70;;;14.50;86.80;;;;;;5073254;28;20028;-82
2021/08/04 01:24:54;;;;;;;0.40;0.40;;;14.40;86.80;;;;;;5073804;28;20060;-81
2021/08/04 01:27:21;;;;;;;0.55;0.55;;;14.40;86.80;;;;;;5073158;28;20028;-82
2021/08/04 01:29:47;;;;;;;0.55;0.55;;;14.40;86.90;;;;;;5073589;28;20466;-81
2021/08/04 01:32:14;;;;;;;1.27;0.88;;;14.40;86.90;;;;;;5073689;28;20032;-82
2021/08/04 01:34:41;;;;;;;0.50;0.50;;;14.40;86.90;;;;;;5073490;28;20109;-81
2021/08/04 01:37:08;;;;;;;0.65;0.60;;;14.40;86.90;;;;;;5072816;28;20027;-81
2021/08/04 01:39:34;;;;;;;0.60;0.60;;;14.40;86.90;;;;;;5073595;28;20374;-81
2021/08/04 01:42:02;;;;;;;0.55;0.52;;;14.40;87.00;;;;;;5073572;28;20020;-82
2021/08/04 01:44:29;;;;;;;0.65;0.57;;;14.40;87.00;;;;;;5073420;28;20016;-81
2021/08/04 01:46:56;;;;;;;0.65;0.55;;;14.40;87.00;;;;;;5073544;28;20525;-82
2021/08/04 01:49:22;;;;;;;1.05;0.77;;;14.40;87.00;;;;;;5073498;28;20380;-80
2021/08/04 01:51:49;;;;;;;0.77;0.70;;;14.40;87.00;;;;;;5073951;28;20013;-81
2021/08/04 01:54:16;;;;;;;1.00;0.90;;;14.40;87.00;;;;;;5074346;28;20112;-81
2021/08/04 01:56:43;;;;;;;0.60;0.60;;;14.40;87.00;;;;;;5056097;28;20089;-82
2021/08/04 01:59:08;;;;;;;0.57;0.57;;;14.40;87.00;;;;;;5075290;28;20047;-83
2021/08/04 02:01:36;;;;;;;0.52;0.52;;;14.30;87.00;;;;;;5073327;28;20462;-82
2021/08/04 02:04:01;;;;;;;0.73;0.73;;;14.30;87.20;;;;;;5076036;28;20029;-83
2021/08/04 02:07:01;;;;;;;0.95;0.90;;;14.30;87.20;;;;;;5074398;28;20025;-83
2021/08/04 02:09:46;;;;;;;0.80;0.80;;;14.30;87.10;;;;;;5073168;28;20074;-82
2021/08/04 02:12:12;;;;;;;0.60;0.60;;;14.30;87.20;;;;;;5073032;28;20083;-82
2021/08/04 02:15:04;;;;;;;0.68;0.68;;;14.20;87.20;;;;;;5073136;28;20028;-82
2021/08/04 02:17:37;;;;;;;0.77;0.70;;;14.20;87.30;;;;;;5072957;28;20554;-83
2021/08/04 02:20:26;;;;;;;0.98;0.90;;;14.20;87.40;;;;;;5072401;28;20086;-83
2021/08/04 02:23:00;;;;;;;0.63;0.63;;;14.20;87.40;;;;;;5072971;28;20094;-82
2021/08/04 02:25:59;;;;;;;0.60;0.60;;;14.10;87.40;;;;;;5073068;28;20032;-82
2021/08/04 02:28:36;;;;;;;0.50;0.50;;;14.10;87.40;;;;;;5072836;28;20486;-82
2021/08/04 02:31:07;;;;;;;0.85;0.80;;;14.10;87.50;;;;;;5072741;28;20032;-81
2021/08/04 02:33:33;;;;;;;1.10;0.80;;;14.10;87.40;;;;;;5072448;28;20392;-83
2021/08/04 02:35:59;;;;;;;0.80;0.70;;;14.10;87.40;;;;;;5055055;28;20028;-83
2021/08/04 02:38:25;;;;;;;0.65;0.55;;;14.20;87.60;;;;;;5073292;28;20059;-82
2021/08/04 02:40:52;;;;;;;0.80;0.80;;;14.20;87.60;;;;;;5076582;28;20506;-81
2021/08/04 02:43:19;;;;;;;1.20;0.70;;;14.10;87.50;;;;;;5058534;28;20017;-82
2021/08/04 02:45:45;;;;;;;1.13;1.00;;;14.10;87.60;;;;;;5076285;28;20020;-82
2021/08/04 02:48:12;;;;;;;0.80;0.63;;;14.10;87.60;;;;;;5075769;28;20039;-83
2021/08/04 02:50:42;;;;;;;1.75;1.00;;;14.10;87.80;;;;;;5076462;28;20108;-83
2021/08/04 02:53:08;;;;;;;0.90;0.90;;;14.10;87.80;;;;;;5076168;28;20039;-82
2021/08/04 02:55:33;;;;;;;0.90;0.80;;;14.00;87.80;;;;;;5076195;28;20092;-80
2021/08/04 02:57:59;;;;;;;0.65;0.63;;;14.00;87.80;;;;;;5076113;28;20071;-81
2021/08/04 03:00:24;;;;;;;0.95;0.73;;;14.00;87.80;;;;;;5076058;28;20034;-81
2021/08/04 03:02:50;;;;;;;1.27;0.93;;;14.00;87.80;;;;;;5075691;28;20031;-81
2021/08/04 03:05:16;;;;;;;1.38;0.95;;;14.00;87.90;;;;;;5076067;28;20035;-82
2021/08/04 03:07:41;;;;;;;1.10;0.90;;;14.00;87.90;;;;;;5075862;28;20012;-82
2021/08/04 03:10:08;;;;;;;1.00;0.82;;;14.00;88.00;;;;;;5075985;28;20147;-82
2021/08/04 03:12:33;;;;;;;0.98;0.90;;;14.00;87.90;;;;;;5075880;28;20032;-82
2021/08/04 03:14:59;;;;;;;1.13;0.80;;;14.00;88.00;;;;;;5075720;28;20039;-82
2021/08/04 03:17:24;;;;;;;0.75;0.65;;;14.00;88.00;;;;;;5057522;28;20023;-81
2021/08/04 03:19:50;;;;;;;0.73;0.73;;;14.00;88.00;;;;;;5075859;28;20024;-82
2021/08/04 03:22:15;;;;;;;1.40;1.05;;;13.90;88.00;;;;;;5075689;28;20535;-83
2021/08/04 03:24:41;;;;;;;0.95;0.77;;;13.90;88.10;;;;;;5075611;28;20086;-81
2021/08/04 03:27:06;;;;;;;1.27;0.98;;;13.90;88.10;;;;;;5075718;28;20070;-83
2021/08/04 03:29:32;;;;;;;1.00;0.80;;;13.90;88.20;;;;;;5075569;28;20028;-82
2021/08/04 03:31:57;;;;;;;1.00;0.88;;;13.90;88.20;;;;;;5075093;28;20013;-83
2021/08/04 03:34:23;;;;;;;0.52;0.52;;;13.90;88.20;;;;;;5075311;28;20032;-83
2021/08/04 03:36:49;;;;;;;1.20;1.10;;;13.90;88.20;;;;;;5075552;28;20028;-82
2021/08/04 03:39:14;;;;;;;1.65;1.15;;;13.90;88.90;;;;;;5075176;28;20079;-83
2021/08/04 03:41:40;;;;;;;0.85;0.80;;;13.80;88.20;;;;;;5075288;28;20024;-83
2021/08/04 03:44:08;;;;;;;1.27;1.02;;;13.80;88.30;;;;;;5075181;28;20469;-81
2021/08/04 03:46:34;;;;;;;1.15;1.02;;;13.80;88.40;;;;;;5074861;28;20024;-82
2021/08/04 03:48:59;;;;;;;1.40;1.15;;;13.80;88.40;;;;;;5075227;28;20392;-82
2021/08/04 03:51:25;;;;;;;1.20;0.90;;;13.80;88.40;;;;;;5074603;28;20026;-81
2021/08/04 03:53:50;;;;;;;1.00;1.00;;;13.80;88.40;;;;;;5075290;28;20036;-82
2021/08/04 03:56:15;;;;;;;0.52;0.52;;;13.70;88.40;;;;;;5075162;28;20490;-82
2021/08/04 03:58:41;;;;;;;1.17;0.98;;;13.70;88.30;;;;;;5075081;28;20104;-81
2021/08/04 04:01:06;;;;;;;0.93;0.75;;;13.80;88.40;;;;;;5074501;28;20027;-81
2021/08/04 04:03:32;;;;;;;1.20;1.10;;;13.70;88.40;;;;;;5075058;28;20020;-82
2021/08/04 04:05:57;;;;;;;1.27;0.88;;;13.70;88.40;;;;;;5057188;28;20016;-82
2021/08/04 04:08:23;;;;;;;1.08;0.77;;;13.70;88.40;;;;;;5075029;28;20461;-83
2021/08/04 04:10:49;;;;;;;1.45;0.80;;;13.70;88.50;;;;;;5074812;28;20024;-82
2021/08/04 04:13:14;;;;;;;1.45;1.10;;;13.70;88.50;;;;;;5074499;28;20090;-81
2021/08/04 04:15:40;;;;;;;0.80;0.73;;;13.70;88.50;;;;;;5074303;28;20016;-81
2021/08/04 04:18:08;;;;;;;1.27;1.17;;;13.70;88.50;;;;;;5074721;28;20453;-81
2021/08/04 04:20:34;;;;;;;0.80;0.80;;;13.70;88.50;;;;;;5056949;28;20103;-81
2021/08/04 04:22:59;;;;;;;1.05;0.90;;;13.70;88.50;;;;;;5076508;28;20100;-83
2021/08/04 04:25:25;;;;;;;0.80;0.80;;;13.70;88.50;;;;;;5076567;28;20025;-83
2021/08/04 04:27:50;;;;;;;1.52;0.95;;;13.70;88.50;;;;;;5059051;28;20013;-82
2021/08/04 04:30:16;;;;;;;0.80;0.80;;;13.70;88.50;;;;;;5057931;28;20025;-81
2021/08/04 04:32:42;;;;;;;1.40;1.23;;;13.70;88.50;;;;;;5056525;28;20035;-82
2021/08/04 04:35:08;;;;;;;1.05;0.77;;;13.70;88.50;;;;;;5077767;28;20020;-81
2021/08/04 04:37:33;;;;;;;0.70;0.70;;;13.80;88.60;;;;;;5058039;28;20093;-82
2021/08/04 04:39:59;;;;;;;0.73;0.63;;;13.80;88.50;;;;;;5074585;28;20029;-82
2021/08/04 04:42:25;;;;;;;0.60;0.60;;;13.80;88.50;;;;;;5074238;28;20021;-82
2021/08/04 04:44:50;;;;;;;2.05;0.73;;;13.80;88.50;;;;;;5055734;28;20024;-81
2021/08/04 04:47:16;;;;;;;0.82;0.52;;;13.80;88.40;;;;;;5074302;28;20028;-83
2021/08/04 04:49:41;;;;;;;0.68;0.68;;;13.90;88.40;;;;;;5074211;28;20431;-83
2021/08/04 04:52:07;;;;;;;1.23;1.10;;;13.90;88.30;;;;;;5073980;28;20023;-82
2021/08/04 04:54:33;;;;;;;1.38;1.10;;;13.90;88.30;;;;;;5073909;28;20020;-82
2021/08/04 04:56:58;;;;;;;1.42;1.30;;;13.90;88.30;;;;;;5073741;28;20025;-83
2021/08/04 04:59:24;;;;;;;0.95;0.80;;;14.00;88.30;;;;;;5073305;28;20016;-83
2021/08/04 05:01:49;;;;;;;1.05;0.90;;;14.00;88.20;;;;;;5073432;28;20457;-83
2021/08/04 05:04:16;;;;;;;0.80;0.70;;;14.10;88.20;;;;;;5073561;28;20073;-83
2021/08/04 05:06:41;;;;;;;1.27;0.95;;;14.10;88.10;;;;;;5073880;28;20103;-83
2021/08/04 05:09:07;;;;;;;0.90;0.90;;;14.10;88.10;;;;;;5073964;28;20549;-83
2021/08/04 05:11:32;;;;;;;1.52;0.93;;;14.10;88.10;;;;;;5073865;28;20477;-83
2021/08/04 05:13:58;;;;;;;0.93;0.85;;;14.10;88.10;;;;;;5073173;28;20409;-83
2021/08/04 05:16:23;;;;;;;0.75;0.70;;;14.10;88.10;;;;;;5073548;28;20023;-83
2021/08/04 05:18:49;;;;;;;0.70;0.70;;;14.20;88.10;;;;;;5073811;28;20104;-83
2021/08/04 05:21:14;;;;;;;0.80;0.80;;;14.20;88.10;;;;;;5073553;28;20029;-82
2021/08/04 05:23:40;;;;;;;0.50;0.50;;;14.20;88.10;;;;;;5055620;28;20028;-83
2021/08/04 05:26:08;;;;;;;1.27;0.93;;;14.30;88.00;;;;;;5055746;28;20085;-83
2021/08/04 05:28:34;;;;;;;0.83;0.70;;;14.30;88.00;;;;;;5073191;28;20104;-83
2021/08/04 05:31:00;;;;;;;0.77;0.70;;;14.40;88.00;;;;;;5073466;28;20120;-83
2021/08/04 05:33:25;;;;;;;0.90;0.85;;;14.40;87.90;;;;;;5073507;28;20453;-83
2021/08/04 05:35:51;;;;;;;1.25;0.90;;;14.50;87.90;;;;;;5073462;28;20504;-83
2021/08/04 05:38:16;;;;;;;1.00;0.75;;;14.50;88.50;;;;;;5073325;28;20049;-83
2021/08/04 05:40:42;;;;;;;0.95;0.73;;;14.60;87.80;;;;;;5073490;28;20369;-83
2021/08/04 05:43:07;;;;;;;0.93;0.90;;;14.60;87.80;;;;;;5072810;28;20032;-84
2021/08/04 05:45:34;;;;;;;1.08;0.73;;;14.70;87.80;;;;;;5073528;28;20024;-83
2021/08/04 05:47:59;;;;;;;0.60;0.60;;;14.70;87.70;;;;;;5072208;28;20029;-83
2021/08/04 05:50:25;;;;;;;1.40;1.00;;;14.80;87.60;;;;;;5073304;28;20021;-82
2021/08/04 05:52:51;;;;;;;0.82;0.77;;;14.90;87.50;;;;;;5073132;28;20032;-83
2021/08/04 05:55:16;;;;;;;0.70;0.55;;;15.00;87.50;;;;;;5073421;28;20031;-83
2021/08/04 05:57:43;;;;;;;0.52;0.52;;;15.10;87.40;;;;;;5055308;28;20048;-83
2021/08/04 06:00:09;;;;;;;1.00;0.80;;;15.10;87.30;;;;;;5073395;28;20031;-83
2021/08/04 06:02:38;;;;;;;0.70;0.70;;;15.20;87.30;;;;;;5073627;28;20025;-83
2021/08/04 06:05:04;;;;;;;0.77;0.77;;;15.30;87.30;;;;;;5073638;28;20529;-84
2021/08/04 06:07:30;;;;;;;1.05;0.80;;;15.30;87.30;;;;;;5073343;28;20024;-84
2021/08/04 06:09:55;;;;;;;0.70;0.70;;;15.40;87.30;;;;;;5073258;28;20539;-84
2021/08/04 06:12:21;;;;;;;0.60;0.60;;;15.50;87.20;;;;;;5072717;28;20047;-84
2021/08/04 06:14:46;;;;;;;1.83;0.80;;;15.60;87.20;;;;;;5075591;28;20408;-84
2021/08/04 06:17:12;;;;;;;0.70;0.70;;;15.60;87.10;;;;;;5077211;28;20413;-84
2021/08/04 06:19:37;;;;;;;0.50;0.47;;;15.70;87.00;;;;;;5077140;28;20024;-84
2021/08/04 06:22:03;;;;;;;0.45;0.38;;;15.80;87.00;;;;;;5077247;28;20025;-84
2021/08/04 06:24:29;;;;;;;0.68;0.68;;;15.90;87.00;;;;;;5059019;28;20020;-84
2021/08/04 06:26:54;;;;;;;1.00;0.90;;;16.00;86.90;;;;;;5076474;28;20147;-83
2021/08/04 06:29:21;;;;;;;0.75;0.75;;;16.10;86.80;;;;;;5077124;28;20025;-83
2021/08/04 06:31:47;;;;;;;1.05;0.73;;;16.20;86.70;;;;;;5058710;28;20481;-84
2021/08/04 06:34:13;;;;;;;0.77;0.50;;;16.20;86.60;;;;;;5076845;28;20118;-84
2021/08/04 06:36:38;;;;;;;0.88;0.70;;;16.30;86.60;;;;;;5076951;28;20028;-85
2021/08/04 06:39:04;;;;;;;0.45;0.45;;;16.40;86.50;;;;;;5076564;28;20132;-85
2021/08/04 06:41:29;;;;;;;0.70;0.47;;;16.50;86.40;;;;;;5076132;28;20481;-83
2021/08/04 06:43:55;;;;;;;0.70;0.60;;;16.50;86.30;;;;;;5076645;28;20031;-84
2021/08/04 06:46:20;;;;;;;0.65;0.60;;;16.60;86.30;;;;;;5076876;28;20104;-84
2021/08/04 06:48:46;;;;;;;1.02;0.80;;;16.70;86.30;;;;;;5076940;28;20428;-84
2021/08/04 06:51:14;;;;;;;1.25;0.88;;;16.70;86.20;;;;;;5076735;28;20031;-84
2021/08/04 06:53:39;;;;;;;0.40;0.40;;;16.80;86.20;;;;;;5078888;28;20032;-84
2021/08/04 06:56:08;;;;;;;0.40;0.40;;;16.90;86.30;;;;;;5079622;28;20058;-85
2021/08/04 06:58:33;;;;;;;0.98;0.73;;;16.90;86.30;;;;;;5079134;28;20063;-83
2021/08/04 07:00:59;;;;;;;0.90;0.90;;;17.00;86.30;;;;;;5079787;28;20029;-84
2021/08/04 07:03:24;;;;;;;0.50;0.50;;;17.10;86.30;;;;;;5078060;28;20024;-84
2021/08/04 07:05:50;;;;;;;0.70;0.70;;;17.10;86.20;;;;;;5060736;28;20017;-84
2021/08/04 07:08:18;;;;;;;1.17;1.00;;;17.20;86.10;;;;;;5079080;28;20032;-84
2021/08/04 07:10:45;;;;;;;0.80;0.68;;;17.30;86.10;;;;;;5060064;28;20067;-84
2021/08/04 07:13:11;;;;;;;0.73;0.73;;;17.40;86.10;;;;;;5058671;28;20033;-84
2021/08/04 07:15:36;;;;;;;0.70;0.70;;;17.40;86.00;;;;;;5075914;28;20542;-84
2021/08/04 07:18:04;;;;;;;0.80;0.60;;;17.50;86.10;;;;;;5058137;28;20020;-82
2021/08/04 07:20:33;;;;;;;0.90;0.68;;;17.60;86.00;;;;;;5076074;28;20481;-84
2021/08/04 07:22:58;;;;;;;0.43;0.43;;;17.60;86.00;;;;;;5075684;28;20092;-84
2021/08/04 07:25:24;;;;;;;0.70;0.70;;;17.70;86.00;;;;;;5056587;28;20063;-84
2021/08/04 07:27:50;;;;;;;0.57;0.57;;;17.70;86.00;;;;;;5075702;28;20063;-84
2021/08/04 07:30:15;;;;;;;0.77;0.77;;;17.80;85.90;;;;;;5057996;28;20016;-83
2021/08/04 07:32:41;;;;;;;0.60;0.60;;;17.90;85.80;;;;;;5057656;28;20469;-84
2021/08/04 07:35:07;;;;;;;0.50;0.50;;;17.90;85.60;;;;;;5075776;28;20032;-84
2021/08/04 07:37:33;;;;;;;0.73;0.70;;;18.00;85.70;;;;;;5075620;28;20361;-83
2021/08/04 07:39:59;;;;;;;0.82;0.80;;;18.00;85.60;;;;;;5074963;28;20043;-84
2021/08/04 07:42:25;;;;;;;0.60;0.60;;;18.10;85.60;;;;;;5058179;28;20016;-83
2021/08/04 07:44:51;;;;;;;0.70;0.70;;;18.20;85.60;;;;;;5058078;28;20036;-85
2021/08/04 07:47:17;;;;;;;0.60;0.60;;;18.30;85.50;;;;;;5075566;28;20017;-84
2021/08/04 07:49:43;;;;;;;0.98;0.80;;;18.40;85.30;;;;;;5075383;28;20350;-84
2021/08/04 07:52:09;;;;;;;0.57;0.52;;;18.40;85.20;;;;;;5075028;28;20028;-84
2021/08/04 07:54:34;;;;;;;0.63;0.63;;;18.40;85.20;;;;;;5074706;28;20067;-84
2021/08/04 07:57:01;;;;;;;0.60;0.60;;;18.50;85.20;;;;;;5075065;28;20029;-84
2021/08/04 07:59:26;;;;;;;0.60;0.60;;;18.50;85.20;;;;;;5075252;28;20016;-83
2021/08/04 08:01:52;;;;;;;0.73;0.73;;;18.60;85.20;;;;;;5075161;28;20380;-82
2021/08/04 08:04:17;;;;;;;0.40;0.40;;;18.60;85.20;;;;;;5057070;28;20034;-82
2021/08/04 08:06:43;;;;;;;0.57;0.57;;;18.70;85.20;;;;;;5075235;28;20103;-83
2021/08/04 08:09:11;;;;;;;0.50;0.50;;;18.70;85.10;;;;;;5074339;28;20066;-83
2021/08/04 08:11:36;;;;;;;0.63;0.63;;;18.80;85.10;;;;;;5074982;28;20029;-85
2021/08/04 08:14:02;;;;;;;0.50;0.50;;;18.80;85.00;;;;;;5074834;28;20036;-85
2021/08/04 08:16:28;;;;;;;0.85;0.60;;;18.90;85.00;;;;;;5075351;28;20027;-84
2021/08/04 08:18:53;;;;;;;0.43;0.43;;;19.00;85.00;;;;;;5074841;28;20128;-82
2021/08/04 08:21:23;;;;;;;0.40;0.40;;;19.00;84.90;;;;;;5073989;28;20039;-85
2021/08/04 08:23:52;;;;;;;0.50;0.50;;;19.10;84.90;;;;;;5075119;28;20110;-84
2021/08/04 08:26:18;;;;;;;0.60;0.60;;;19.20;84.70;;;;;;5074449;28;20092;-84
2021/08/04 08:28:43;;;;;;;0.47;0.47;;;19.30;84.60;;;;;;5074765;28;20109;-84
2021/08/04 08:31:09;;;;;;;0.65;0.65;;;19.40;84.60;;;;;;5074390;28;20035;-84
2021/08/04 08:33:37;;;;;;;0.95;0.70;;;19.40;84.70;;;;;;5074395;28;20033;-83
2021/08/04 08:36:03;;;;;;;0.63;0.60;;;19.50;84.70;;;;;;5055791;28;20017;-84
2021/08/04 08:38:29;;;;;;;0.45;0.45;;;19.50;84.60;;;;;;5055915;28;20067;-83
2021/08/04 08:40:54;;;;;;;0.60;0.55;;;19.60;84.60;;;;;;5074215;28;20048;-84
2021/08/04 08:43:20;;;;;;;0.43;0.43;;;19.80;84.60;;;;;;5074240;28;20115;-83
2021/08/04 08:45:48;;;;;;;0.55;0.52;;;19.90;84.40;;;;;;5074264;28;20031;-83
2021/08/04 08:48:18;;;;;;;0.77;0.40;;;20.10;84.20;;;;;;5073991;28;20024;-84
2021/08/04 08:50:47;;;;;;;0.60;0.60;;;20.20;83.90;;;;;;5055755;28;20024;-84
2021/08/04 08:53:13;;;;;;;1.17;0.43;;;20.40;83.70;;;;;;5074399;28;20029;-83
2021/08/04 08:55:40;;;;;;;0.75;0.75;;;20.50;83.40;;;;;;5074367;28;20358;-84
2021/08/04 08:58:06;;;;;;;0.30;0.30;;;20.70;83.30;;;;;;5074118;28;20473;-83
2021/08/04 09:00:31;;;;;;;0.80;0.73;;;20.70;83.10;;;;;;5074115;28;20048;-83
2021/08/04 09:02:57;;;;;;;0.75;0.75;;;20.90;82.90;;;;;;5073993;28;20027;-83
2021/08/04 09:05:23;;;;;;;1.40;0.70;;;20.90;82.60;;;;;;5073448;28;20467;-83
2021/08/04 09:07:48;;;;;;;0.50;0.50;;;20.80;83.00;;;;;;5073807;28;20107;-82
2021/08/04 09:10:25;;;;;;;1.23;0.88;;;20.80;83.30;;;;;;5073563;28;20465;-82
2021/08/04 09:12:53;;;;;;;1.15;1.02;;;21.00;82.90;;;;;;5073660;28;20039;-82
2021/08/04 09:15:41;;;;;;;0.60;0.60;;;21.00;82.80;;;;;;5073966;28;20027;-82
2021/08/04 09:18:15;;;;;;;1.05;0.70;;;21.00;82.90;;;;;;5073921;28;20020;-82
2021/08/04 09:20:53;;;;;;;0.50;0.50;;;21.10;82.60;;;;;;5073181;28;20029;-82
2021/08/04 09:23:24;;;;;;;0.50;0.50;;;21.20;82.20;;;;;;5073978;28;20423;-81
2021/08/04 09:26:17;;;;;;;0.80;0.80;;;21.30;82.10;;;;;;5073689;28;20404;-81
2021/08/04 09:29:03;;;;;;;0.63;0.57;;;21.40;82.20;;;;;;5040718;28;20502;-83
2021/08/04 09:31:40;;;;;;;0.47;0.45;;;21.50;82.00;;;;;;5073692;28;20063;-82
2021/08/04 09:34:35;;;;;;;0.50;0.50;;;21.60;81.80;;;;;;5072876;28;20386;-82
2021/08/04 09:37:12;;;;;;;0.77;0.73;;;21.70;81.70;;;;;;5073555;28;20031;-82
2021/08/04 09:39:56;;;;;;;0.70;0.70;;;21.80;81.60;;;;;;5073425;28;20024;-81
2021/08/04 09:42:38;;;;;;;0.47;0.40;;;21.80;81.20;;;;;;5073311;28;20103;-82
2021/08/04 09:45:04;;;;;;;0.70;0.70;;;21.80;81.50;;;;;;5073311;28;20070;-82
2021/08/04 09:47:31;;;;;;;0.35;0.35;;;21.80;81.50;;;;;;5054960;28;20087;-82
2021/08/04 09:50:01;;;;;;;0.40;0.40;;;21.80;81.70;;;;;;5072328;28;20025;-82
2021/08/04 09:52:30;;;;;;;0.40;0.40;;;21.80;81.60;;;;;;5073234;28;20074;-81
2021/08/04 09:55:13;;;;;;;0.30;0.30;;;21.80;81.60;;;;;;5073231;28;20028;-83
2021/08/04 09:57:44;;;;;;;0.43;0.43;;;21.90;81.50;;;;;;5073214;28;20041;-82
2021/08/04 10:00:15;;;;;;;0.30;0.30;;;21.90;81.30;;;;;;5073204;28;20056;-82
2021/08/04 10:02:44;;;;;;;0.40;0.40;;;22.00;81.20;;;;;;5073195;28;20380;-83
2021/08/04 10:05:22;;;;;;;0.20;0.20;;;22.00;81.20;;;;;;5072644;28;20012;-82
2021/08/04 10:08:08;;;;;;;0.77;0.77;;;22.10;81.10;;;;;;5055149;28;20029;-82
2021/08/04 10:10:41;;;;;;;1.17;1.00;;;22.20;80.80;;;;;;5055257;28;20044;-83
2021/08/04 10:13:08;;;;;;;0.45;0.45;;;22.20;80.70;;;;;;5072883;28;20110;-83
2021/08/04 10:15:41;;;;;;;0.70;0.50;;;22.20;80.80;;;;;;5072908;28;20067;-83
2021/08/04 10:18:22;;;;;;;0.60;0.60;;;22.20;80.60;;;;;;5072616;28;20056;-84
2021/08/04 10:20:54;;;;;;;0.47;0.43;;;22.40;80.40;;;;;;5072950;28;20024;-83
2021/08/04 10:23:20;;;;;;;0.40;0.40;;;22.50;80.00;;;;;;5072767;28;20035;-83
2021/08/04 10:25:47;;;;;;;0.35;0.35;;;22.50;80.00;;;;;;5072883;28;20020;-82
2021/08/04 10:28:14;;;;;;;0.50;0.50;;;22.60;79.90;;;;;;5072732;28;20523;-81
2021/08/04 10:30:42;;;;;;;0.28;0.28;;;22.70;79.90;;;;;;5072717;28;20029;-84
2021/08/04 10:33:08;;;;;;;0.30;0.30;;;22.90;79.60;;;;;;5072168;28;20108;-82
2021/08/04 10:35:38;;;;;;;0.20;0.20;;;22.90;79.40;;;;;;5072948;28;20445;-82
2021/08/04 10:38:16;;;;;;;0.40;0.40;;;23.00;79.20;;;;;;5072609;28;20102;-82
2021/08/04 10:40:43;;;;;;;0.55;0.55;;;23.00;79.30;;;;;;5072749;28;20028;-82
2021/08/04 10:43:08;;;;;;;0.28;0.28;;;23.00;79.40;;;;;;5072769;28;20029;-83
2021/08/04 10:45:35;;;;;;;0.50;0.50;;;23.10;79.20;;;;;;5072526;28;20051;-82
2021/08/04 10:48:18;;;;;;;0.20;0.20;;;23.10;79.10;;;;;;5054225;28;20024;-82
2021/08/04 10:51:15;;;;;;;0.22;0.22;;;23.20;79.10;;;;;;5072821;28;20139;-83
2021/08/04 10:54:00;;;;;;;0.30;0.30;;;23.20;79.30;;;;;;5072478;28;20043;-82
2021/08/04 10:56:46;;;;;;;0.30;0.30;;;23.20;79.20;;;;;;5072691;28;20035;-83
2021/08/04 10:59:11;;;;;;;0.40;0.40;;;23.10;79.00;;;;;;5047353;28;20075;-83
2021/08/04 11:01:45;;;;;;;0.30;0.30;;;23.00;79.10;;;;;;5074075;28;20032;-81
2021/08/04 11:04:43;;;;;;;0.57;0.57;;;22.80;79.30;;;;;;5058081;28;20020;-82
2021/08/04 11:07:11;;;;;;;0.57;0.50;;;22.80;79.50;;;;;;5075983;28;20033;-84
2021/08/04 11:09:38;;;;;;;0.75;0.70;;;22.70;79.50;;;;;;5075980;28;20074;-83
2021/08/04 11:12:06;;;;;;;0.50;0.50;;;22.70;79.30;;;;;;5075911;28;20035;-82
2021/08/04 11:14:40;;;;;;;0.60;0.60;;;22.70;79.50;;;;;;5075962;28;20070;-83
2021/08/04 11:17:09;;;;;;;0.40;0.40;;;22.80;79.30;;;;;;5075578;28;20027;-83
2021/08/04 11:19:57;;;;;;;0.35;0.30;;;23.00;79.00;;;;;;5076099;28;20059;-82
2021/08/04 11:22:26;;;;;;;0.50;0.50;;;23.30;78.40;;;;;;5066569;28;20040;-82
2021/08/04 11:24:55;;;;;;;0.52;0.50;;;23.30;78.20;;;;;;5057803;28;20017;-82
2021/08/04 11:27:24;;;;;;;0.70;0.70;;;23.20;78.20;;;;;;5075845;28;20031;-82
2021/08/04 11:29:50;;;;;;;0.85;0.73;;;23.10;78.50;;;;;;5075421;28;20542;-85
2021/08/04 11:32:21;;;;;;;0.55;0.55;;;22.90;78.70;;;;;;5075629;28;20060;-83
2021/08/04 11:34:47;;;;;;;0.90;0.90;;;22.90;79.10;;;;;;5075604;28;20504;-82
2021/08/04 11:37:12;;;;;;;0.50;0.50;;;23.20;78.70;;;;;;5075318;28;20029;-81
2021/08/04 11:40:02;;;;;;;0.52;0.52;;;23.80;78.10;;;;;;5075671;28;20033;-83
2021/08/04 11:42:29;;;;;;;0.60;0.60;;;24.80;76.40;;;;;;5057468;28;20024;-83
2021/08/04 11:45:05;;;;;;;0.40;0.40;;;25.60;75.30;;;;;;5075250;28;20029;-84
2021/08/04 11:47:31;;;;;;;0.40;0.40;;;26.50;73.90;;;;;;5077193;28;20484;-84
2021/08/04 11:50:03;;;;;;;0.40;0.40;;;27.10;73.00;;;;;;5057808;28;20025;-83
2021/08/04 11:52:29;;;;;;;0.40;0.40;;;27.80;72.00;;;;;;5075793;28;20020;-84
2021/08/04 11:55:05;;;;;;;0.57;0.57;;;28.40;71.00;;;;;;5076067;28;20032;-83
2021/08/04 11:57:32;;;;;;;0.55;0.55;;;28.40;71.00;;;;;;5058672;28;20031;-83
2021/08/04 11:59:58;;;;;;;0.55;0.55;;;28.30;71.10;;;;;;5075447;28;20027;-82
2021/08/04 12:02:25;;;;;;;0.65;0.65;;;28.50;71.40;;;;;;5075217;28;20436;-83
2021/08/04 12:04:55;;;;;;;0.40;0.40;;;29.00;71.10;;;;;;5075201;28;20033;-83
2021/08/04 12:07:26;;;;;;;0.60;0.60;;;28.90;70.40;;;;;;5076815;28;20028;-84
2021/08/04 12:09:52;;;;;;;0.60;0.60;;;28.30;71.20;;;;;;5057508;28;20020;-82
2021/08/04 12:12:23;;;;;;;0.50;0.50;;;27.50;72.70;;;;;;5074369;28;20532;-83
2021/08/04 12:14:51;;;;;;;0.40;0.40;;;27.60;73.20;;;;;;5074742;28;20081;-84
2021/08/04 12:17:21;;;;;;;0.68;0.52;;;28.00;72.60;;;;;;5074854;28;20019;-83
2021/08/04 12:19:48;;;;;;;0.52;0.50;;;27.80;72.60;;;;;;5074781;28;20020;-83
2021/08/04 12:22:28;;;;;;;0.47;0.47;;;28.10;72.80;;;;;;5074833;28;20021;-82
2021/08/04 12:24:59;;;;;;;0.60;0.60;;;28.50;71.90;;;;;;5074797;28;20095;-84
2021/08/04 12:27:35;;;;;;;0.40;0.40;;;28.90;71.50;;;;;;5074634;28;20020;-83
2021/08/04 12:30:18;;;;;;;0.70;0.70;;;29.10;71.00;;;;;;5056651;28;20032;-83
2021/08/04 12:33:04;;;;;;;0.50;0.50;;;29.20;71.40;;;;;;5077120;28;20024;-84
2021/08/04 12:35:42;;;;;;;0.60;0.60;;;29.10;70.80;;;;;;5077045;28;20038;-84
2021/08/04 12:38:21;;;;;;;1.08;1.05;;;28.00;72.30;;;;;;5075317;28;20051;-84
2021/08/04 12:40:49;;;;;;;0.70;0.70;;;26.90;74.00;;;;;;5075371;28;20092;-84
2021/08/04 12:43:16;;;;;;;0.73;0.73;;;26.10;75.40;;;;;;5076155;28;20013;-83
2021/08/04 12:45:52;;;;;;;0.70;0.70;;;25.70;76.20;;;;;;5076013;28;20465;-83
2021/08/04 12:48:20;;;;;;;0.40;0.40;;;25.90;76.00;;;;;;5075112;28;20025;-83
2021/08/04 12:50:50;;;;;;;0.50;0.50;;;26.60;75.00;;;;;;5075466;28;20020;-83
2021/08/04 12:53:35;;;;;;;0.65;0.65;;;27.40;73.60;;;;;;5074704;28;20036;-83
2021/08/04 12:56:02;;;;;;;0.65;0.65;;;28.20;72.30;;;;;;5074481;28;20376;-82